Vancouver International Airport

CYVR · Columbia Británica, Canadá

METAR pasados CYVR · Aeropuerto Internacional de Vancouver

A continuación puedes ver los METAR de los últimos días. Selecciona un año para ver los METAR más antiguos, desde el año 2007 en adelante.

3 de diciembre de 2022

Hora Código Tiempo Temp. Visibilidad Cielo nuboso Viento METAR/SPECI
14:00
V
4 °C 15 mi - 330° 330° 8 kt METAR CYVR 032200Z 33008KT 15SM FEW060 FEW240 04/M03 A3020 RMK CU1CI2 CU TR SLP230
13:00
V
3 °C 20 mi - 120° 120° 4 kt METAR CYVR 032100Z 12004KT 20SM FEW055 FEW100 FEW240 03/M02 A3020 RMK SC1AC1CI1 SC TR AC TR SLP228
12:00
V
3 °C 20 mi - 100° 100° 6 kt METAR CYVR 032000Z 10006KT 20SM FEW050 FEW100 SCT240 03/M02 A3021 RMK SC1AC1CI2 SC TR SLP234
11:00
V
2 °C 20 mi 11.000 ft 080° 080° 4 kt METAR CYVR 031900Z 08004KT 20SM FEW054 BKN110 BKN210 02/M03 A3023 RMK SC2AC3CC1 CC TR SLP238
10:00
V
0 °C 20 mi 5.600 ft 080° 080° 5 kt METAR CYVR 031800Z 08005KT 20SM BKN056 00/M03 A3021 RMK SC7 SLP232
09:00
V
0 °C 20 mi 5.600 ft 120° 120° 4 kt METAR CYVR 031700Z 12004KT 20SM BKN056 BKN095 00/M04 A3019 RMK SC6AC1 SLP224
08:00
V
0 °C 20 mi 5.800 ft Var Var 2 kt METAR CYVR 031600Z VRB02KT 20SM FEW047 OVC058 M00/M03 A3016 RMK SC2SC6 SLP217
07:00
V
0 °C 15 mi 5.300 ft 140° 140° 4 kt METAR CYVR 031500Z 14004KT 15SM SCT045 OVC053 00/M03 A3015 RMK SC4SC4 SLP212
06:00
V
0 °C 15 mi 5.600 ft 100° 100° 7 kt METAR CYVR 031400Z 10007KT 15SM SCT040 OVC056 M00/M03 A3013 RMK SC4SC4 SLP206
05:00
V
0 °C 15 mi 4.900 ft 080° 080° 3 kt METAR CYVR 031300Z 08003KT 15SM BKN049 BKN057 OVC063 00/M03 A3012 RMK SC5SC2SC1 SLP202
04:00
V
0 °C 15 mi 4.900 ft 060° 060° 4 kt METAR CYVR 031200Z 06004KT 15SM FEW027 BKN049 OVC061 00/M03 A3010 RMK SC1SC5SC3 SC TR SLP195
03:00
V
0 °C 15 mi 6.200 ft 100° 100° 4 kt METAR CYVR 031100Z 10004KT 15SM FEW030 SCT053 OVC062 M00/M02 A3010 RMK SC1SC4SC4 SC TR SLP196
02:00
V
0 °C 15 mi 5.900 ft 100° 100° 2 kt METAR CYVR 031000Z 10002KT 15SM FEW025 FEW049 BKN059 OVC070 00/M03 A3008 RMK SC1SC2SC5AC1 SC TR SLP190
01:00
V
0 °C 15 mi 5.500 ft 110° 110° 3 kt METAR CYVR 030900Z 11003KT 15SM FEW020 FEW045 BKN055 OVC063 00/M02 A3007 RMK SC1SC2SC5SC1 SC TR SLP185
00:00
V
0 °C 15 mi 4.200 ft 080° 080° 4 kt METAR CYVR 030800Z 08004KT 070V130 15SM BKN042 OVC049 00/M02 A3006 RMK SC5SC3 SLP183

2 de diciembre de 2022

Hora Código Tiempo Temp. Visibilidad Cielo nuboso Viento METAR/SPECI
23:28
V
1 °C 15 mi 3.800 ft 150° 150° 5 kt METAR CYVR 030728Z 15005KT 15SM BKN038 OVC045 01/M02 A3006 RMK SC5SC3 SLP183
23:00
V
1 °C 12 mi 4.300 ft 180° 180° 3 kt METAR CYVR 030700Z 18003KT 12SM -SN SCT035 OVC043 01/M01 A3006 RMK SC4SC4 SLP182
22:40
V
1 °C 12 mi 4.300 ft Var Var 2 kt METAR CYVR 030640Z VRB02KT 12SM -SN SCT034 OVC043 01/M01 A3006 RMK SC4SC4 SN VRY LGT SLP180
22:07
V
1 °C 15 mi 4.300 ft 090° 090° 5 kt METAR CYVR 030607Z 09005KT 15SM FEW030 BKN043 OVC053 01/M01 A3005 RMK SC1SC5SC3 SC TR SLP178
21:35
V
1 °C 12 mi 4.200 ft 100° 100° 6 kt METAR CYVR 030535Z 10006KT 12SM -RASN FEW027 BKN042 OVC052 01/M01 A3004 RMK SC1SC5SC3 SC TR SLP175
21:00
V
1 °C 12 mi 4.400 ft 150° 150° 5 kt METAR CYVR 030500Z 15005KT 12SM FEW027 BKN044 OVC054 01/M01 A3003 RMK SC1SC5SC3 SC TR SLP173
20:00
V
2 °C 15 mi 4.300 ft 110° 110° 8 kt METAR CYVR 030400Z 11008KT 15SM FEW029 BKN043 OVC053 02/M00 A3001 RMK SC1SC5SC3 SC TR SLP166
19:00
V
2 °C 15 mi 4.700 ft 090° 090° 8 kt METAR CYVR 030300Z 09008KT 15SM BKN047 OVC069 02/00 A3001 RMK SC5AC3 SLP163
18:00
V
2 °C 15 mi 4.500 ft 090° 090° 8 kt METAR CYVR 030200Z 09008KT 15SM BKN045 OVC072 02/M00 A3001 RMK SC5AC3 SLP163
17:34
V
2 °C 15 mi 4.600 ft 080° 080° 7 kt METAR CYVR 030134Z 08007KT 15SM OVC046 02/M00 A3002 RMK SC8 SLP168
17:00
V
3 °C 20 mi 4.500 ft 050° 050° 9 kt METAR CYVR 030100Z 05009KT 20SM OVC045 03/M00 A3002 RMK SC8 SLP169
16:00
V
2 °C 20 mi 3.800 ft 060° 060° 10 kt METAR CYVR 030000Z 06010KT 20SM OVC038 02/M01 A3003 RMK SC8 SLP171
15:00
V
1 °C 20 mi 3.700 ft 070° 070° 9 kt METAR CYVR 022300Z 07009KT 20SM BKN037 OVC080 01/M01 A3004 RMK SC6AC2 SLP175
14:00
M
1 °C 12 mi 2.500 ft 060° 060° 13 kt METAR CYVR 022200Z 06013KT 12SM BKN025 BKN080 BKN230 01/M01 A3004 RMK SC5AC2CI1 CI TR SLP174
13:35
M
0 °C 8 mi 2.500 ft 070° 070° 8 kt METAR CYVR 022135Z 07008KT 8SM BKN025 BKN080 BKN230 00/M00 A3005 RMK SC5AS1CI1 CI TR SLP177
13:16
I
0 °C 3 mi 2.500 ft 090° 090° 8 kt METAR CYVR 022116Z 09008KT 3SM -SN OVC025 M00/M01 A3006 RMK SC8 SLP180
13:00
I
0 °C 2 mi 2.200 ft 080° 080° 10 kt METAR CYVR 022100Z 08010KT 2SM -SN OVC022 M00/M01 A3006 RMK SC8 SLP182
12:45
I
0 °C 1½ mi 2.100 ft 100° 100° 9 kt METAR CYVR 022045Z 10009KT 1 1/2SM -SN OVC021 M00/M02 A3007 RMK SC8 SLP184
12:00
I
-1 °C 3 mi 2.300 ft 070° 070° 8 kt METAR CYVR 022000Z 07008KT 3SM -SN BKN023 OVC035 M01/M02 A3007 RMK SC6SC2 SLP185
11:34
I
-1 °C 2½ mi 3.000 ft 080° 080° 9 kt METAR CYVR 021934Z 08009KT 2 1/2SM -SN BKN030 OVC042 M01/M02 A3008 RMK SC5SC3 SLP188
11:00
V
-1 °C 7 mi 3.700 ft 100° 100° 11 kt METAR CYVR 021900Z 10011KT 7SM -SN BKN037 OVC050 M01/M03 A3008 RMK SC6SC2 SLP189
10:00
V
-2 °C 7 mi 3.600 ft 100° 100° 10 kt METAR CYVR 021800Z 10010KT 7SM -SN OVC036 M02/M04 A3008 RMK SC8 SLP190
09:48
V
-2 °C 12 mi 3.500 ft 100° 100° 9 kt METAR CYVR 021748Z 10009KT 12SM -SN OVC035 M02/M05 A3008 RMK SC8 SLP189
09:00
V
-2 °C 15 mi 3.100 ft 100° 100° 8 kt METAR CYVR 021700Z 10008KT 15SM OVC031 M02/M05 A3007 RMK SC8 SLP185
08:00
V
-3 °C 15 mi 6.200 ft 100° 100° 11 kt METAR CYVR 021600Z 10011KT 15SM SCT030 OVC062 M03/M05 A3006 RMK SC3SC5 SLP180
07:50
V
-3 °C 15 mi 6.200 ft 100° 100° 10 kt METAR CYVR 021550Z 10010KT 15SM SCT030 OVC062 M03/M05 A3006 RMK SC3SC5 SLP181
07:00
V
-4 °C 15 mi 6.400 ft 100° 100° 8 kt METAR CYVR 021500Z 10008KT 15SM -SN FEW043 BKN064 OVC082 M04/M05 A3006 RMK SC2SC4AC2 SLP180
06:00
V
-4 °C 15 mi 5.500 ft 100° 100° 8 kt METAR CYVR 021400Z 10008KT 15SM -SN SCT031 OVC055 M04/M05 A3005 RMK SC3SC5 /S01/ SLP179
05:00
V
-4 °C 12 mi 5.700 ft 090° 090° 7 kt METAR CYVR 021300Z 09007KT 12SM -SN SCT033 BKN057 M04/M06 A3005 RMK SC4SC4 PCPN VRY LGT SLP179
04:41
V
-4 °C 10 mi 3.000 ft 080° 080° 6 kt METAR CYVR 021241Z 08006KT 10SM -SN BKN030 OVC057 M04/M06 A3005 RMK SC5SC3 SLP179
04:07
M
-5 °C 4 mi 2.500 ft 090° 090° 9 kt METAR CYVR 021207Z 09009KT 4SM -SN BR BKN025 OVC034 M05/M07 A3005 RMK SC5SC3 SLP179
04:00
V
-5 °C 8 mi 3.400 ft 100° 100° 9 kt METAR CYVR 021200Z 10009KT 8SM -SN SCT026 OVC034 M05/M07 A3006 RMK SC4SC4 SLP180
03:40
V
-5 °C 10 mi 3.400 ft 110° 110° 11 kt METAR CYVR 021140Z 11011KT 10SM -SN OVC034 M05/M08 A3005 RMK SC8 SLP178
03:00
V
-4 °C 15 mi 4.700 ft 090° 090° 8 kt METAR CYVR 021100Z 09008KT 15SM SCT035 BKN047 OVC057 M04/M08 A3004 RMK SC4SC3SC1 SLP175
02:00
V
-5 °C 15 mi 7.300 ft 080° 080° 8 kt METAR CYVR 021000Z 08008KT 15SM SCT035 BKN073 M05/M09 A3003 RMK SC4AC3 SLP171
01:00
V
-5 °C 15 mi 7.400 ft 100° 100° 13 kt METAR CYVR 020900Z 10013KT 15SM SCT032 SCT058 BKN074 M05/M09 A3002 RMK SC3SC1AC2 SLP167
00:00
V
-5 °C 15 mi - 100° 100° 10 kt METAR CYVR 020800Z 10010KT 15SM SCT031 SCT071 M05/M09 A3000 RMK SC3AC1 SLP161

1 de diciembre de 2022

Hora Código Tiempo Temp. Visibilidad Cielo nuboso Viento METAR/SPECI
23:00
V
-4 °C 15 mi 3.100 ft 080° 080° 9 kt METAR CYVR 020700Z 08009KT 15SM BKN031 M04/M10 A2998 RMK SC7 SLP153
22:00
V
-4 °C 15 mi 3.200 ft 090° 090° 10 kt METAR CYVR 020600Z 09010KT 15SM BKN032 M04/M09 A2995 RMK SC7 SLP146
21:00
V
-4 °C 15 mi 3.200 ft 080° 080° 8 kt METAR CYVR 020500Z 08008KT 15SM BKN032 M04/M10 A2993 RMK SC7 SLP138
20:00
V
-3 °C 15 mi 3.200 ft 090° 090° 7 kt METAR CYVR 020400Z 09007KT 15SM BKN032 M03/M09 A2991 RMK SC6 SLP130
19:00
V
-4 °C 15 mi 3.300 ft 100° 100° 9 kt METAR CYVR 020300Z 10009KT 15SM BKN033 M04/M09 A2990 RMK SC7 SLP126
18:00
V
-3 °C 15 mi - 090° 090° 9 kt METAR CYVR 020200Z 09009KT 15SM SCT033 M03/M09 A2988 RMK SC4 SLP120
17:00
V
-3 °C 15 mi 3.300 ft 100° 100° 7 kt METAR CYVR 020100Z 10007KT 15SM BKN033 BKN055 M03/M08 A2986 RMK SC5CU1 CU TR SLP113
16:00
V
-2 °C 20 mi 3.200 ft 110° 110° 6 kt METAR CYVR 020000Z 11006KT 20SM BKN032 BKN055 BKN130 M02/M07 A2984 RMK SC5CU1AC1 CU TR AC TR SLP106
15:00
V
-1 °C 20 mi 3.200 ft 140° 140° 7 kt METAR CYVR 012300Z 14007KT 20SM BKN032 BKN055 BKN130 BKN230 M01/M06 A2982 RMK SC6CU1AC1CI1 CU TR AC TR CI TR SLP100
14:00
M
-1 °C 20 mi 2.700 ft 130° 130° 5 kt METAR CYVR 012200Z 13005KT 20SM BKN027 BKN055 BKN130 M01/M07 A2980 RMK SC6CU1AC1 CU TR AC TR SLP094
13:00
M
-1 °C 20 mi 2.800 ft 130° 130° 5 kt METAR CYVR 012100Z 13005KT 20SM BKN028 BKN055 M01/M07 A2979 RMK SC7CU1 CU TR SLP091
12:00
V
-2 °C 20 mi 3.200 ft 140° 140° 5 kt METAR CYVR 012000Z 14005KT 20SM BKN032 BKN050 M02/M07 A2979 RMK SC7CU1 CU TR SLP090
11:00
V
-2 °C 20 mi 3.400 ft 150° 150° 4 kt METAR CYVR 011900Z 15004KT 20SM BKN034 M02/M07 A2978 RMK SC7 SLP088
10:00
V
-2 °C 20 mi 3.400 ft 100° 100° 4 kt METAR CYVR 011800Z 10004KT 20SM BKN034 BKN130 M02/M06 A2976 RMK SC7AC1 AC TR SLP081
09:00
V
-3 °C 20 mi 4.000 ft 110° 110° 5 kt METAR CYVR 011700Z 11005KT 20SM BKN040 BKN130 M03/M06 A2975 RMK SC6AC1 AC TR SLP076
08:00
V
-3 °C 20 mi 3.500 ft 120° 120° 6 kt METAR CYVR 011600Z 12006KT 20SM FEW015 BKN035 BKN130 M03/M05 A2972 RMK SF1SC6AC1 SF TR AC TR SLP068
07:00
V
-2 °C 20 mi 3.500 ft 100° 100° 7 kt METAR CYVR 011500Z 10007KT 20SM BKN035 BKN130 M02/M04 A2969 RMK SC5AC1 SLP058
06:00
V
-2 °C 20 mi 3.300 ft 110° 110° 3 kt METAR CYVR 011400Z 11003KT 20SM BKN033 OVC130 M02/M03 A2967 RMK SC6AC2 SLP050
05:00
V
-3 °C 20 mi 3.800 ft 120° 120° 4 kt METAR CYVR 011300Z 12004KT 20SM BKN038 BKN130 M03/M03 A2966 RMK SC6AC1 SLP045
04:00
V
-3 °C 20 mi 3.300 ft 120° 120° 3 kt METAR CYVR 011200Z 12003KT 20SM BKN033 OVC130 M03/M04 A2964 RMK SC7AC1 SLP038
03:00
V
-4 °C 20 mi 12.000 ft Var 000° 0 kt METAR CYVR 011100Z 00000KT 20SM BKN120 M04/M05 A2962 RMK AC7 SLP034
02:00
V
-3 °C 20 mi - 040° 040° 3 kt METAR CYVR 011000Z 04003KT 20SM SCT120 M03/M03 A2961 RMK AC3 SLP030

Nosotros y terceros seguimos tu comportamiento en Internet en nuestro sitio web con cookies. Si continúas, asumimos que estás de acuerdo con nuestra Política de cookies.